WetterOnline ( http://www.wetteronline.de )

Wetter aktuell Herdecke

Aktuelles Wetter: Lüdenscheid (392m)

6-stündlich | Neueste Meldungen
Ortszeit Temperatur Wetter
Sa, 21.07. 20:00 19.3° C bedeckt
Sa, 21.07. 14:00 24.5° C bedeckt
Sa, 21.07. 8:00 17.3° C bewölkt
Sa, 21.07. 2:00 19.1° C bedeckt
Fr, 20.07. 20:00 25.7° C wolkig
Fr, 20.07. 14:00 26.2° C wolkig
Fr, 20.07. 8:00 15.4° C wolkig
Fr, 20.07. 2:00 16.7° C wolkig
Ortszeit Temperatur Wetter
So, 22.07. 0:30 17.5° C leicht bewölkt
So, 22.07. 0:20 17.5° C leicht bewölkt
So, 22.07. 0:10 17.6° C leicht bewölkt
So, 22.07. 0:00 17.5° C bewölkt
Sa, 21.07. 23:50 17.5° C bewölkt
Sa, 21.07. 23:40 17.0° C bewölkt
Sa, 21.07. 23:30 17.3° C bedeckt
Sa, 21.07. 23:00 18.3° C bedeckt
Sa, 21.07. 22:30 18.7° C bedeckt
Sa, 21.07. 22:00 18.0° C bedeckt
Sa, 21.07. 21:30 18.3° C bedeckt
Ortszeit Relative Feuchte Sichtweite
Sa, 21.07. 20:00 78% 50 km
Sa, 21.07. 14:00 46% 30 km
Sa, 21.07. 8:00 70% 40 km
Sa, 21.07. 2:00 57% 45 km
Fr, 20.07. 20:00 37% 40 km
Fr, 20.07. 14:00 32% 50 km
Fr, 20.07. 8:00 67% 45 km
Fr, 20.07. 2:00 59% 50 km
Ortszeit Relative Feuchte Sichtweite
So, 22.07. 0:30 87% -
So, 22.07. 0:20 87% -
So, 22.07. 0:10 88% -
So, 22.07. 0:00 92% 21 km
Sa, 21.07. 23:50 92% -
Sa, 21.07. 23:40 94% -
Sa, 21.07. 23:30 93% 19 km
Sa, 21.07. 23:00 88% 28 km
Sa, 21.07. 22:30 87% 30 km
Sa, 21.07. 22:00 88% 35 km
Sa, 21.07. 21:30 87% 35 km
Ortszeit Niederschlagsmenge Niederschlagsart
Sa, 21.07. 20:00 2 l/m2 in 12 Std. Regen
Sa, 21.07. 14:00 0.0 l/m2 in 6 Std. -
Sa, 21.07. 8:00 0.1 l/m2 in 12 Std. Regen
Sa, 21.07. 2:00 0.1 l/m2 in 6 Std. Regen
Fr, 20.07. 20:00 0.0 l/m2 in 12 Std. -
Fr, 20.07. 14:00 0.0 l/m2 in 6 Std. -
Fr, 20.07. 8:00 0.0 l/m2 in 12 Std. -
Fr, 20.07. 2:00 0.0 l/m2 in 6 Std. -
Ortszeit Niederschlagsmenge Niederschlagsart
So, 22.07. 0:30 0.0 l/m2 in 1 Std. -
So, 22.07. 0:20 keine Meldung -
So, 22.07. 0:10 keine Meldung -
So, 22.07. 0:00 0.0 l/m2 in 1 Std. -
Sa, 21.07. 23:50 keine Meldung -
Sa, 21.07. 23:40 keine Meldung -
Sa, 21.07. 23:30 0.0 l/m2 in 1 Std. -
Sa, 21.07. 23:00 0.0 l/m2 in 1 Std. -
Sa, 21.07. 22:30 0.0 l/m2 in 1 Std. -
Sa, 21.07. 22:00 0.0 l/m2 in 1 Std. -
Sa, 21.07. 21:30 0.0 l/m2 in 1 Std. -
Ortszeit Stärke Spitze Richtung
km/h Bft. km/h Grad Sektor
Sa, 21.07. 20:00 4 1 22 90° O
Sa, 21.07. 14:00 7 2 18 70° O
Sa, 21.07. 8:00 4 1 7 260° W
Sa, 21.07. 2:00 4 1 25 20° N
Fr, 20.07. 20:00 4 1 32 340° N
Fr, 20.07. 14:00 13 3 28 240° SW
Fr, 20.07. 8:00 4 1 11 100° O
Fr, 20.07. 2:00 4 1 11 70° O
Ortszeit Stärke Spitze Richtung
km/h Bft. km/h Grad Sektor
So, 22.07. 0:30 7 2 14 250° W
So, 22.07. 0:20 7 2 - 250° W
So, 22.07. 0:10 7 2 - 250° W
So, 22.07. 0:00 7 2 11 270° W
Sa, 21.07. 23:50 7 2 - 270° W
Sa, 21.07. 23:40 7 2 - 270° W
Sa, 21.07. 23:30 6 1 7 280° W
Sa, 21.07. 23:00 4 1 11 260° W
Sa, 21.07. 22:30 4 1 11 300° NW
Sa, 21.07. 22:00 6 1 7 280° W
Sa, 21.07. 21:30 4 1 7 310° NW
Ortszeit Untergrenze Bedeckung Gattung
total tief tief mittel hoch
Sa, 21.07. 20:00 3300 m 8/8 8/8 - - -
Sa, 21.07. 14:00 3000 m 8/8 8/8 - - -
Sa, 21.07. 8:00 2100 m 7/8 6/8 - - -
Sa, 21.07. 2:00 3600 m 8/8 8/8 - - -
Fr, 20.07. 20:00 2700 m 7/8 1/8 - - -
Fr, 20.07. 14:00 2100 m 7/8 3/8 - - -
Fr, 20.07. 8:00 1800 m 8/8 2/8 - - -
Fr, 20.07. 2:00 9000 m 8/8 0/8 - - -
Ortszeit Bedeckungsgrad in Achtel und Wolkenuntergrenze
So, 22.07. 0:30 2(3300m) 4(3900m)
So, 22.07. 0:20 2(3300m) 4(3900m)
So, 22.07. 0:10 2(2700m) 4(3300m) 5(3900m)
So, 22.07. 0:00 6(2700m) 8(3300m) 8(3900m)
Sa, 21.07. 23:50 6(2700m) 8(3300m) 8(3900m)
Sa, 21.07. 23:40 4(2400m) 8(3000m) 8(3900m)
Sa, 21.07. 23:30 7(3000m) 8(3900m)
Sa, 21.07. 23:00 1(3000m) 8(3900m)
Sa, 21.07. 22:30 8(3900m)
Sa, 21.07. 22:00 4(3000m) 8(3600m)
Sa, 21.07. 21:30 8(3600m) 8(3900m)
Ortszeit Luftdruck NN (hPa) Tendenz (hPa in 3 Std.)
Sa, 21.07. 20:00 1011 - 0,6
Sa, 21.07. 14:00 1011 + 0,2
Sa, 21.07. 8:00 1011 + 0,4
Sa, 21.07. 2:00 1011 - 1,0
Fr, 20.07. 20:00 1010 - 0,9
Fr, 20.07. 14:00 1012 - 0,8
Fr, 20.07. 8:00 1015 - 0,6
Fr, 20.07. 2:00 1016 - 0,4
Ortszeit Luftdruck NN (hPa) Tendenz (hPa in 3 Std.)
So, 22.07. 0:30 1013 + 0,8
So, 22.07. 0:20 1013 keine Meldung
So, 22.07. 0:10 1012 keine Meldung
So, 22.07. 0:00 1012 + 0,7
Sa, 21.07. 23:50 1012 keine Meldung
Sa, 21.07. 23:40 1012 keine Meldung
Sa, 21.07. 23:30 1012 + 0,8
Sa, 21.07. 23:00 1012 + 0,9
Sa, 21.07. 22:30 1012 + 0,8
Sa, 21.07. 22:00 1012 + 0,2
Sa, 21.07. 21:30 1012 - 0,2
Ortszeit Schneehöhe (cm)
Sa, 21.07. 20:00 -
Sa, 21.07. 14:00 -
Sa, 21.07. 8:00 -
Sa, 21.07. 2:00 -
Fr, 20.07. 20:00 -
Fr, 20.07. 14:00 -
Fr, 20.07. 8:00 -
Fr, 20.07. 2:00 -
Ortszeit Schneehöhe (cm)
So, 22.07. 0:30 -
So, 22.07. 0:20 -
So, 22.07. 0:10 -
So, 22.07. 0:00 -
Sa, 21.07. 23:50 -
Sa, 21.07. 23:40 -
Sa, 21.07. 23:30 -
Sa, 21.07. 23:00 -
Sa, 21.07. 22:30 -
Sa, 21.07. 22:00 -
Sa, 21.07. 21:30 -
Link zu dieser Seite / Seite empfehlen

Das Wetter in ...